Time;durP1;ratioP1;P1;durP2;ratioP2;P2;SDS_P1;SDS_P2;PMS_P1;PMS_P2;Temp;Humidity;BMP_temperature;BMP_pressure;BME280_temperature;BME280_humidity;BME280_pressure;Samples;Min_cycle;Max_cycle;Signal;HPM_P1;HPM_P2
2023/12/30 00:01:48;;;;;;;1.92;1.42;;;7.80;99.90;;;;;;5014470;28;20257;-78
2023/12/30 00:04:16;;;;;;;1.58;1.48;;;7.90;99.90;;;;;;5015230;28;20239;-78
2023/12/30 00:06:43;;;;;;;1.45;1.35;;;8.10;99.90;;;;;;5016640;28;20242;-78
2023/12/30 00:09:10;;;;;;;2.97;1.40;;;8.10;99.90;;;;;;5015144;28;20211;-78
2023/12/30 00:11:37;;;;;;;2.35;1.65;;;8.10;99.90;;;;;;5015224;28;20227;-78
2023/12/30 00:14:05;;;;;;;1.80;1.33;;;8.10;99.90;;;;;;5015311;28;20319;-77
2023/12/30 04:32:26;;;;;;;1.10;0.93;;;7.50;99.90;;;;;;5251845;22;20257;-78
2023/12/30 04:34:53;;;;;;;2.60;1.17;;;7.50;99.90;;;;;;4993148;28;20216;-79
2023/12/30 04:37:20;;;;;;;1.27;1.02;;;7.50;99.90;;;;;;4995814;28;20203;-78
2023/12/30 04:39:47;;;;;;;1.20;1.00;;;7.60;99.90;;;;;;4993327;28;20203;-77
2023/12/30 04:42:15;;;;;;;1.48;1.20;;;7.50;99.90;;;;;;4994119;28;20243;-79
2023/12/30 04:44:41;;;;;;;1.13;0.90;;;7.50;99.90;;;;;;4994310;28;20664;-77
2023/12/30 04:47:08;;;;;;;3.17;1.10;;;7.60;99.90;;;;;;4993616;28;20688;-77
2023/12/30 04:49:36;;;;;;;1.50;1.10;;;7.50;99.90;;;;;;4993711;28;20286;-77
2023/12/30 04:52:03;;;;;;;1.30;0.88;;;7.60;99.90;;;;;;4994175;28;20234;-77
2023/12/30 04:54:31;;;;;;;1.10;0.90;;;7.50;99.90;;;;;;4994387;28;20214;-77
2023/12/30 04:56:58;;;;;;;1.35;1.15;;;7.60;99.90;;;;;;4994358;28;20204;-77
2023/12/30 04:59:25;;;;;;;1.23;1.00;;;7.60;99.90;;;;;;4994307;28;20211;-77
2023/12/30 05:01:52;;;;;;;1.50;1.30;;;7.60;99.90;;;;;;4993486;28;20752;-77
2023/12/30 05:04:18;;;;;;;1.88;1.35;;;7.60;99.90;;;;;;4993784;28;20211;-77
2023/12/30 05:06:46;;;;;;;1.10;1.00;;;7.60;99.90;;;;;;4992676;28;20227;-77
2023/12/30 05:09:14;;;;;;;1.25;1.15;;;7.60;99.90;;;;;;4993323;28;20626;-77
2023/12/30 05:11:44;;;;;;;1.55;1.20;;;7.60;99.90;;;;;;4992203;28;20423;-77
2023/12/30 05:14:10;;;;;;;1.10;1.00;;;7.60;99.90;;;;;;4993058;28;20205;-77
2023/12/30 05:16:43;;;;;;;2.22;1.25;;;7.50;99.90;;;;;;4992188;28;20214;-77
2023/12/30 05:19:10;;;;;;;1.85;1.27;;;7.50;99.90;;;;;;4992372;28;20204;-77
2023/12/30 05:21:37;;;;;;;1.17;0.90;;;7.50;99.90;;;;;;4991507;28;20224;-77
2023/12/30 05:24:05;;;;;;;0.95;0.85;;;7.50;99.90;;;;;;4992488;28;20204;-77
2023/12/30 05:26:32;;;;;;;0.90;0.80;;;7.50;99.90;;;;;;4992253;28;20216;-77
2023/12/30 05:28:59;;;;;;;3.55;1.33;;;7.50;99.90;;;;;;4992120;28;20204;-77
2023/12/30 05:31:26;;;;;;;1.55;1.10;;;7.50;99.90;;;;;;4992419;28;20316;-77
2023/12/30 05:33:52;;;;;;;1.38;1.27;;;7.50;99.90;;;;;;4992597;28;20212;-77
2023/12/30 05:36:19;;;;;;;1.00;0.90;;;7.50;99.90;;;;;;4992716;28;20594;-77
2023/12/30 05:38:46;;;;;;;1.48;1.13;;;7.50;99.90;;;;;;4992282;28;20213;-77
2023/12/30 05:41:14;;;;;;;1.15;0.88;;;7.50;99.90;;;;;;4992316;28;20289;-77
2023/12/30 05:43:41;;;;;;;1.20;1.10;;;7.40;99.90;;;;;;4992692;28;20211;-77
2023/12/30 05:46:08;;;;;;;1.05;0.95;;;7.40;99.90;;;;;;4992702;28;20206;-77
2023/12/30 05:48:35;;;;;;;1.40;1.20;;;7.40;99.90;;;;;;4992015;28;20224;-77
2023/12/30 05:51:01;;;;;;;1.05;0.95;;;7.40;99.90;;;;;;4991924;28;20294;-77
2023/12/30 05:53:29;;;;;;;1.58;1.10;;;7.40;99.90;;;;;;4991949;28;20214;-77
2023/12/30 05:55:55;;;;;;;1.05;0.95;;;7.40;99.90;;;;;;4984722;28;20263;-77
2023/12/30 05:58:23;;;;;;;1.40;1.10;;;7.40;99.90;;;;;;4992129;28;20611;-77
2023/12/30 06:00:50;;;;;;;0.90;0.80;;;7.50;99.90;;;;;;4991459;28;20233;-77
2023/12/30 06:03:17;;;;;;;2.08;1.15;;;7.50;99.90;;;;;;4992034;28;20605;-76
2023/12/30 06:05:43;;;;;;;1.15;1.05;;;7.40;99.90;;;;;;4991703;28;20220;-77
2023/12/30 06:08:10;;;;;;;2.25;0.98;;;7.40;99.90;;;;;;4992273;28;20622;-77
2023/12/30 06:10:37;;;;;;;1.35;0.93;;;7.50;99.90;;;;;;4992783;28;20428;-77
2023/12/30 06:13:04;;;;;;;1.00;0.90;;;7.40;99.90;;;;;;4992973;28;20209;-77
2023/12/30 06:15:32;;;;;;;1.38;1.23;;;7.40;99.90;;;;;;4991604;28;20666;-76
2023/12/30 06:17:58;;;;;;;2.08;1.00;;;7.50;99.90;;;;;;4991000;28;20205;-77
2023/12/30 06:20:25;;;;;;;2.20;0.90;;;7.40;99.90;;;;;;4991058;28;20208;-76
2023/12/30 06:22:52;;;;;;;1.92;1.15;;;7.40;99.90;;;;;;4991259;28;20207;-77
2023/12/30 06:25:19;;;;;;;0.95;0.88;;;7.40;99.90;;;;;;4991491;28;20219;-76
2023/12/30 06:27:45;;;;;;;1.00;0.90;;;7.40;99.90;;;;;;4990930;28;20228;-77
2023/12/30 06:30:13;;;;;;;1.38;0.93;;;7.40;99.90;;;;;;4991913;28;20258;-77
2023/12/30 06:32:41;;;;;;;1.70;0.90;;;7.40;99.90;;;;;;4992008;28;20212;-77
2023/12/30 06:35:08;;;;;;;1.80;1.08;;;7.40;99.90;;;;;;4995096;28;20219;-77
2023/12/30 06:37:35;;;;;;;1.10;1.00;;;7.30;99.90;;;;;;4994877;28;20208;-76
2023/12/30 06:40:02;;;;;;;1.98;1.13;;;7.30;99.90;;;;;;4994889;28;20231;-77
2023/12/30 06:42:29;;;;;;;1.20;1.10;;;7.30;99.90;;;;;;4995040;28;20224;-77
2023/12/30 06:44:56;;;;;;;1.00;0.90;;;7.30;99.90;;;;;;4994780;28;20209;-77
2023/12/30 06:47:22;;;;;;;1.00;0.90;;;7.30;99.90;;;;;;4994802;28;20240;-77
2023/12/30 06:49:50;;;;;;;1.50;1.33;;;7.30;99.90;;;;;;4994293;28;20595;-77
2023/12/30 06:52:19;;;;;;;4.55;1.08;;;7.30;99.90;;;;;;4994627;28;20236;-77
2023/12/30 06:54:46;;;;;;;1.25;1.15;;;7.30;99.90;;;;;;4994218;28;20298;-76
2023/12/30 06:57:12;;;;;;;0.98;0.80;;;7.30;99.90;;;;;;4994897;28;20212;-77
2023/12/30 06:59:39;;;;;;;1.63;1.20;;;7.30;99.90;;;;;;4994422;28;20213;-77
2023/12/30 07:02:06;;;;;;;1.63;1.52;;;7.30;99.90;;;;;;4994785;28;20580;-77
2023/12/30 07:04:33;;;;;;;1.40;1.25;;;7.30;99.90;;;;;;4995429;28;20210;-79
2023/12/30 07:07:01;;;;;;;3.30;1.50;;;7.30;99.90;;;;;;4995388;28;20579;-77
2023/12/30 07:09:27;;;;;;;2.20;1.30;;;7.30;99.90;;;;;;4995535;28;20216;-78
2023/12/30 07:11:54;;;;;;;1.13;1.02;;;7.30;99.90;;;;;;4994609;28;20242;-78
2023/12/30 07:14:21;;;;;;;2.35;1.40;;;7.30;99.90;;;;;;4994845;28;20217;-78
2023/12/30 07:16:49;;;;;;;1.40;1.15;;;7.30;99.90;;;;;;4995273;28;20208;-78
2023/12/30 07:19:17;;;;;;;2.72;1.30;;;7.30;99.90;;;;;;4996611;28;20271;-78
2023/12/30 07:21:44;;;;;;;1.10;1.00;;;7.30;99.90;;;;;;4995787;28;20746;-78
2023/12/30 07:24:12;;;;;;;1.50;1.02;;;7.20;99.90;;;;;;4996428;28;20216;-78
2023/12/30 07:26:39;;;;;;;1.98;1.27;;;7.20;99.90;;;;;;4993884;28;20231;-78
2023/12/30 07:29:05;;;;;;;1.60;1.40;;;7.20;99.90;;;;;;4998309;28;20980;-78
2023/12/30 07:31:32;;;;;;;1.45;1.35;;;7.20;99.90;;;;;;4998941;28;20246;-78
2023/12/30 07:33:59;;;;;;;2.50;1.38;;;7.20;99.90;;;;;;5001155;28;20645;-79
2023/12/30 07:36:27;;;;;;;1.00;0.90;;;7.20;99.90;;;;;;5001336;28;20208;-79
2023/12/30 07:38:53;;;;;;;1.20;1.10;;;7.30;99.90;;;;;;5000708;28;20215;-78
2023/12/30 07:41:21;;;;;;;1.50;1.30;;;7.30;99.90;;;;;;5001777;28;20293;-78
2023/12/30 07:43:49;;;;;;;1.77;1.27;;;7.30;99.90;;;;;;5002070;28;20209;-78
2023/12/30 07:46:16;;;;;;;1.48;1.38;;;7.30;99.90;;;;;;4998930;28;20217;-78
2023/12/30 07:48:43;;;;;;;1.95;1.42;;;7.30;99.90;;;;;;4997583;28;20225;-79
2023/12/30 07:51:10;;;;;;;2.13;1.15;;;7.40;99.90;;;;;;5001797;28;20259;-79
2023/12/30 07:53:38;;;;;;;2.03;1.50;;;7.40;99.90;;;;;;5006937;28;20678;-78
2023/12/30 07:56:05;;;;;;;1.67;1.50;;;7.40;99.90;;;;;;5000230;28;20203;-78
2023/12/30 07:58:33;;;;;;;1.50;1.30;;;7.40;99.90;;;;;;5009460;28;20394;-78
2023/12/30 08:01:00;;;;;;;1.70;1.55;;;7.50;99.90;;;;;;5004237;28;20229;-79
2023/12/30 08:03:27;;;;;;;1.33;1.23;;;7.60;99.90;;;;;;5004219;28;20220;-78
2023/12/30 08:05:54;;;;;;;1.52;1.40;;;7.60;99.90;;;;;;5003435;28;20204;-79
2023/12/30 08:08:21;;;;;;;1.35;1.05;;;7.70;99.90;;;;;;4997208;28;20232;-79
2023/12/30 08:10:47;;;;;;;1.42;0.90;;;7.70;99.90;;;;;;4996496;28;20227;-78
2023/12/30 08:13:16;;;;;;;1.30;1.20;;;7.80;99.90;;;;;;4996787;28;20209;-78
2023/12/30 08:15:44;;;;;;;1.33;1.23;;;7.90;99.90;;;;;;4997513;28;20216;-79
2023/12/30 08:18:11;;;;;;;1.80;1.30;;;8.00;99.90;;;;;;4996821;28;20200;-79
2023/12/30 08:20:37;;;;;;;1.50;1.40;;;8.10;99.90;;;;;;4996708;28;20671;-79
2023/12/30 08:23:04;;;;;;;1.60;1.50;;;8.20;99.90;;;;;;4997963;28;20231;-79
2023/12/30 08:25:31;;;;;;;2.47;1.40;;;8.20;99.90;;;;;;4998240;28;20582;-78
2023/12/30 08:27:57;;;;;;;1.13;1.00;;;8.30;99.90;;;;;;4998811;28;20234;-79
2023/12/30 08:30:24;;;;;;;1.40;1.30;;;8.30;99.90;;;;;;4999534;28;20301;-79
2023/12/30 08:32:52;;;;;;;9.18;1.38;;;8.40;99.90;;;;;;4998581;28;20220;-78
2023/12/30 08:35:19;;;;;;;2.90;1.50;;;8.60;99.90;;;;;;4998741;28;20214;-79
2023/12/30 08:37:46;;;;;;;1.30;1.20;;;8.70;99.90;;;;;;4997568;28;20210;-78
2023/12/30 08:40:14;;;;;;;1.50;1.10;;;8.80;99.90;;;;;;4998308;28;20201;-79
2023/12/30 08:42:44;;;;;;;1.50;1.30;;;8.80;99.90;;;;;;4999417;28;20214;-79
2023/12/30 08:45:18;;;;;;;1.02;0.93;;;8.90;99.90;;;;;;4997766;28;20264;-79
2023/12/30 08:47:45;;;;;;;1.15;1.00;;;8.80;99.90;;;;;;4997699;28;20236;-79
2023/12/30 08:50:13;;;;;;;1.27;1.17;;;8.70;99.90;;;;;;4994838;28;20238;-80
2023/12/30 08:52:41;;;;;;;1.77;1.27;;;8.60;99.90;;;;;;4994334;28;20213;-80
2023/12/30 08:55:11;;;;;;;1.33;1.05;;;8.50;99.90;;;;;;4994705;28;20273;-81
2023/12/30 08:57:37;;;;;;;1.52;1.10;;;8.50;99.90;;;;;;4996485;28;20230;-81
2023/12/30 09:00:08;;;;;;;1.95;1.25;;;8.40;99.90;;;;;;4996587;28;20754;-81
2023/12/30 09:02:35;;;;;;;1.80;1.00;;;8.50;99.90;;;;;;4996952;28;20226;-81
2023/12/30 09:05:02;;;;;;;1.20;1.10;;;8.40;99.90;;;;;;4997038;28;20210;-81
2023/12/30 09:07:31;;;;;;;1.75;1.17;;;8.50;99.90;;;;;;4996457;28;20214;-80
2023/12/30 09:09:58;;;;;;;1.35;1.08;;;8.60;99.90;;;;;;4994608;28;20218;-81
2023/12/30 09:12:25;;;;;;;1.98;1.30;;;8.60;99.90;;;;;;4996731;28;20241;-81
2023/12/30 09:14:51;;;;;;;1.20;1.10;;;8.60;99.90;;;;;;4996078;28;20214;-81
2023/12/30 09:17:18;;;;;;;1.00;0.80;;;8.60;99.90;;;;;;4996437;28;20227;-81
2023/12/30 09:19:45;;;;;;;1.30;1.10;;;8.70;99.90;;;;;;4997325;28;20212;-81
2023/12/30 09:22:12;;;;;;;1.00;0.90;;;8.80;99.90;;;;;;4996789;28;20249;-81
2023/12/30 09:24:41;;;;;;;1.20;1.10;;;8.90;99.90;;;;;;4996734;28;20298;-81
2023/12/30 09:27:08;;;;;;;1.30;0.90;;;9.00;99.90;;;;;;4989425;28;20211;-80
2023/12/30 09:29:35;;;;;;;1.13;1.02;;;9.20;99.90;;;;;;4990499;28;20773;-81
2023/12/30 09:32:02;;;;;;;1.30;0.98;;;9.50;99.90;;;;;;4991850;28;20237;-80
2023/12/30 09:34:29;;;;;;;1.35;1.15;;;10.20;99.90;;;;;;4990344;28;20243;-82
2023/12/30 09:36:56;;;;;;;1.23;0.90;;;10.80;99.90;;;;;;4991549;28;20692;-81
2023/12/30 09:39:23;;;;;;;1.55;1.13;;;11.20;99.90;;;;;;4993451;28;20210;-81
2023/12/30 09:41:51;;;;;;;1.00;0.90;;;11.20;99.90;;;;;;4993329;28;20586;-82
2023/12/30 09:44:19;;;;;;;1.85;1.13;;;11.40;99.90;;;;;;4997081;28;20211;-82
2023/12/30 09:46:50;;;;;;;1.20;0.88;;;11.90;99.90;;;;;;4996510;28;20705;-81
2023/12/30 09:49:17;;;;;;;2.58;1.20;;;12.90;99.90;;;;;;4995823;28;20232;-81
2023/12/30 09:51:44;;;;;;;1.45;1.00;;;14.40;99.90;;;;;;4997067;28;20443;-81
2023/12/30 09:54:11;;;;;;;1.60;1.10;;;14.80;99.90;;;;;;4998777;28;20226;-81
2023/12/30 09:56:41;;;;;;;1.20;0.97;;;14.70;99.90;;;;;;4990226;28;20492;-81
2023/12/30 09:59:09;;;;;;;1.38;1.27;;;14.70;99.90;;;;;;4996773;28;20486;-81
2023/12/30 10:01:37;;;;;;;1.60;1.07;;;14.70;99.90;;;;;;4996065;28;20233;-79
2023/12/30 10:04:04;;;;;;;1.30;0.93;;;14.10;99.90;;;;;;4996019;28;20472;-79
2023/12/30 10:06:33;;;;;;;1.20;1.00;;;13.30;99.90;;;;;;4996571;28;20468;-79
2023/12/30 10:09:00;;;;;;;1.20;0.90;;;12.80;99.90;;;;;;4998866;28;20225;-79
2023/12/30 10:11:27;;;;;;;3.85;1.33;;;12.00;99.90;;;;;;4999642;28;20488;-78
2023/12/30 10:13:54;;;;;;;1.20;1.10;;;11.60;99.90;;;;;;4999878;28;20246;-80
2023/12/30 10:16:22;;;;;;;0.90;0.82;;;11.30;99.90;;;;;;5001150;28;20668;-81
2023/12/30 10:18:52;;;;;;;1.40;1.00;;;11.20;99.90;;;;;;5000202;28;20232;-79
2023/12/30 10:21:19;;;;;;;0.90;0.80;;;11.20;99.90;;;;;;4999447;28;20231;-81
2023/12/30 10:23:48;;;;;;;0.90;0.80;;;11.20;99.90;;;;;;4999300;28;20214;-81
2023/12/30 10:26:14;;;;;;;1.08;0.98;;;11.10;99.90;;;;;;4999251;28;20246;-79
2023/12/30 10:28:41;;;;;;;2.80;1.10;;;11.30;99.90;;;;;;4997962;28;20223;-79
2023/12/30 10:31:09;;;;;;;0.98;0.88;;;11.50;99.90;;;;;;4999498;28;20613;-80
2023/12/30 10:33:37;;;;;;;0.90;0.70;;;11.30;99.90;;;;;;4999868;28;20207;-79
2023/12/30 10:36:06;;;;;;;0.93;0.80;;;11.20;99.90;;;;;;4999768;28;20207;-81
2023/12/30 10:38:33;;;;;;;2.17;1.00;;;10.90;99.90;;;;;;5000376;28;20210;-80
2023/12/30 10:41:00;;;;;;;1.80;1.17;;;11.00;99.90;;;;;;4999968;28;20223;-81
2023/12/30 10:43:27;;;;;;;1.55;1.02;;;12.00;99.90;;;;;;5000184;28;20208;-81
2023/12/30 10:45:57;;;;;;;1.60;1.30;;;13.30;99.90;;;;;;5000458;28;20422;-81
2023/12/30 10:48:24;;;;;;;1.20;1.10;;;14.70;99.90;;;;;;5000663;28;20663;-81
2023/12/30 10:50:57;;;;;;;1.10;0.90;;;16.40;99.90;;;;;;5000033;28;20712;-81
2023/12/30 10:53:27;;;;;;;1.00;0.73;;;18.10;99.90;;;;;;5000683;28;20480;-81
2023/12/30 10:55:56;;;;;;;0.90;0.80;;;19.70;99.90;;;;;;5001079;28;20478;-81
2023/12/30 10:58:24;;;;;;;1.00;0.80;;;20.60;99.40;;;;;;5001364;28;20462;-82
2023/12/30 11:00:54;;;;;;;1.20;1.00;;;20.90;98.20;;;;;;5000380;28;20504;-81
2023/12/30 11:03:21;;;;;;;1.40;0.80;;;21.40;97.30;;;;;;4998749;28;20843;-80
2023/12/30 11:05:59;;;;;;;4.70;1.30;;;21.80;96.20;;;;;;5000679;28;20494;-82
2023/12/30 11:08:27;;;;;;;1.27;0.90;;;21.80;96.10;;;;;;5006426;28;20484;-81
2023/12/30 11:10:56;;;;;;;1.20;1.00;;;21.70;95.50;;;;;;5010774;28;20482;-82
2023/12/30 11:13:22;;;;;;;0.80;0.70;;;22.00;95.00;;;;;;5012673;28;20731;-81
2023/12/30 11:15:49;;;;;;;0.90;0.80;;;22.60;94.60;;;;;;5012540;28;20464;-81
2023/12/30 11:18:36;;;;;;;1.00;0.87;;;22.80;94.50;;;;;;5010447;28;20484;-81
2023/12/30 11:21:04;;;;;;;1.30;1.20;;;22.70;94.00;;;;;;5007512;28;20579;-81
2023/12/30 11:23:35;;;;;;;0.80;0.70;;;22.60;93.40;;;;;;5011249;28;20488;-81
2023/12/30 11:26:06;;;;;;;1.30;1.00;;;22.20;94.00;;;;;;5000628;28;20974;-82
2023/12/30 11:28:37;;;;;;;0.90;0.73;;;22.50;93.50;;;;;;4997400;28;20493;-82
2023/12/30 11:31:04;;;;;;;1.13;1.03;;;22.50;93.60;;;;;;4996862;28;20529;-82
2023/12/30 11:33:30;;;;;;;1.10;0.90;;;21.90;93.70;;;;;;4997021;28;20470;-81
2023/12/30 11:35:59;;;;;;;1.03;0.80;;;21.30;94.40;;;;;;4994769;28;20462;-82
2023/12/30 11:38:30;;;;;;;0.97;0.87;;;21.00;94.20;;;;;;4994441;28;20459;-82
2023/12/30 11:40:58;;;;;;;1.93;1.00;;;20.10;95.20;;;;;;4996551;28;20556;-82
2023/12/30 11:43:26;;;;;;;1.50;1.07;;;19.60;95.60;;;;;;4999639;28;20486;-82
2023/12/30 11:45:53;;;;;;;1.00;0.80;;;19.60;95.60;;;;;;4999832;28;20494;-81
2023/12/30 11:48:21;;;;;;;1.37;0.80;;;18.30;96.00;;;;;;4999558;28;20462;-81
2023/12/30 11:50:53;;;;;;;1.20;0.90;;;17.50;96.90;;;;;;4998278;28;20834;-78
2023/12/30 11:53:21;;;;;;;0.90;0.70;;;17.20;97.70;;;;;;4998815;28;20529;-83
2023/12/30 11:55:49;;;;;;;1.03;0.93;;;17.00;97.50;;;;;;4998286;28;20498;-81
2023/12/30 11:58:16;;;;;;;0.80;0.80;;;17.00;98.00;;;;;;4995330;28;20466;-81
2023/12/30 12:00:43;;;;;;;1.60;1.20;;;16.00;98.30;;;;;;4997562;28;20962;-81
2023/12/30 12:03:11;;;;;;;1.40;1.03;;;15.70;98.90;;;;;;4996606;28;20477;-79
2023/12/30 12:05:38;;;;;;;0.90;0.80;;;15.50;99.20;;;;;;4997370;28;20463;-80
2023/12/30 12:08:06;;;;;;;0.80;0.77;;;15.40;99.30;;;;;;4997644;28;20845;-80
2023/12/30 12:10:34;;;;;;;1.17;0.83;;;15.10;99.70;;;;;;4998252;28;20500;-81
2023/12/30 12:13:02;;;;;;;1.00;0.80;;;15.10;99.30;;;;;;4997395;28;20528;-82
2023/12/30 12:15:29;;;;;;;0.90;0.70;;;14.90;99.90;;;;;;4997085;28;20473;-82
2023/12/30 12:17:57;;;;;;;4.83;1.07;;;14.90;99.90;;;;;;4993177;28;20461;-81
2023/12/30 12:20:26;;;;;;;1.10;0.87;;;14.50;99.90;;;;;;4996408;28;20475;-80
2023/12/30 12:22:53;;;;;;;1.00;0.90;;;13.60;99.90;;;;;;4997399;28;20468;-79
2023/12/30 12:25:20;;;;;;;1.30;1.20;;;13.60;99.90;;;;;;4997831;28;20217;-80
2023/12/30 12:27:49;;;;;;;1.10;0.90;;;13.50;99.90;;;;;;4999921;28;20471;-79
2023/12/30 12:30:18;;;;;;;1.37;0.80;;;13.50;99.90;;;;;;4998307;28;20495;-80
2023/12/30 12:32:45;;;;;;;1.00;0.82;;;13.40;99.90;;;;;;4997151;28;20483;-79
2023/12/30 12:35:12;;;;;;;1.42;1.30;;;13.30;99.90;;;;;;4999569;28;20215;-79
2023/12/30 12:37:39;;;;;;;2.50;0.90;;;13.50;99.90;;;;;;5009137;28;20448;-79
2023/12/30 12:40:10;;;;;;;1.60;0.80;;;13.40;99.90;;;;;;5007351;28;20205;-79
2023/12/30 12:42:37;;;;;;;1.10;0.80;;;13.40;99.90;;;;;;5008067;28;20233;-80
2023/12/30 12:45:05;;;;;;;1.07;0.90;;;13.70;99.90;;;;;;5010829;28;20492;-79
2023/12/30 12:47:33;;;;;;;1.00;0.90;;;13.90;99.90;;;;;;5007262;28;20472;-79
2023/12/30 12:50:00;;;;;;;1.70;0.82;;;13.90;99.90;;;;;;5005262;28;20236;-79
2023/12/30 12:52:27;;;;;;;2.30;1.00;;;14.20;99.90;;;;;;4998514;28;20681;-81
2023/12/30 12:54:54;;;;;;;0.93;0.83;;;14.40;99.90;;;;;;4997257;28;20476;-78
2023/12/30 12:57:21;;;;;;;1.02;0.93;;;14.00;99.90;;;;;;4999944;28;20499;-78
2023/12/30 12:59:48;;;;;;;0.90;0.73;;;13.60;99.90;;;;;;5000304;28;20693;-79
2023/12/30 13:02:15;;;;;;;3.90;1.57;;;13.50;99.90;;;;;;4998493;28;20495;-80
2023/12/30 13:04:44;;;;;;;1.30;0.93;;;13.50;99.90;;;;;;4999501;28;20507;-79
2023/12/30 13:07:11;;;;;;;1.50;1.10;;;13.50;99.90;;;;;;4997010;28;20208;-78
2023/12/30 13:09:46;;;;;;;0.90;0.70;;;13.50;99.90;;;;;;4997495;28;20514;-78
2023/12/30 13:12:13;;;;;;;1.23;0.97;;;13.30;99.90;;;;;;4997425;28;20483;-78
2023/12/30 13:14:41;;;;;;;1.20;1.00;;;13.30;99.90;;;;;;4996707;28;20481;-80
2023/12/30 13:17:12;;;;;;;1.03;0.93;;;13.20;99.90;;;;;;4998493;28;20214;-78
2023/12/30 13:19:39;;;;;;;1.23;0.90;;;13.00;99.90;;;;;;4998151;28;20507;-78
2023/12/30 13:22:07;;;;;;;0.80;0.73;;;12.60;99.90;;;;;;4996967;28;20696;-78
2023/12/30 13:24:34;;;;;;;1.05;0.95;;;12.20;99.90;;;;;;4997630;28;20222;-80
2023/12/30 13:27:01;;;;;;;0.90;0.70;;;12.10;99.90;;;;;;4999796;28;20219;-78
2023/12/30 13:29:28;;;;;;;1.30;1.20;;;12.00;99.90;;;;;;4998806;28;20224;-78
2023/12/30 13:31:55;;;;;;;1.33;1.10;;;12.10;99.90;;;;;;4999387;28;21040;-79
2023/12/30 13:34:21;;;;;;;1.10;0.90;;;12.10;99.90;;;;;;5000320;28;20684;-78
2023/12/30 13:36:53;;;;;;;1.00;0.90;;;12.30;99.90;;;;;;5000123;28;20215;-78
2023/12/30 13:39:22;;;;;;;1.17;0.80;;;12.30;99.90;;;;;;4998684;28;20514;-78
2023/12/30 13:41:50;;;;;;;0.80;0.70;;;12.20;99.90;;;;;;4998760;28;20225;-78
2023/12/30 13:44:18;;;;;;;0.80;0.70;;;12.10;99.90;;;;;;5004041;28;20219;-78
2023/12/30 13:52:10;;;;;;;1.10;0.80;;;12.20;99.90;;;;;;4998379;28;20254;-78
2023/12/30 13:54:41;;;;;;;2.17;0.98;;;12.10;99.90;;;;;;5001924;28;20248;-78
2023/12/30 13:57:12;;;;;;;0.90;0.77;;;12.00;99.90;;;;;;5002558;28;20214;-79
2023/12/30 13:59:44;;;;;;;1.10;0.90;;;11.80;99.90;;;;;;4998866;28;20208;-79
2023/12/30 14:02:11;;;;;;;0.93;0.80;;;11.80;99.90;;;;;;5000918;28;20389;-79
2023/12/30 14:04:40;;;;;;;1.20;0.80;;;11.70;99.90;;;;;;5002207;28;20250;-79
2023/12/30 14:07:12;;;;;;;1.37;0.97;;;11.60;99.90;;;;;;5000910;28;20298;-79
2023/12/30 14:09:49;;;;;;;1.15;0.80;;;11.30;99.90;;;;;;4997344;28;20491;-79
2023/12/30 14:12:18;;;;;;;2.40;0.95;;;11.30;99.90;;;;;;4996595;28;20231;-78
2023/12/30 14:14:52;;;;;;;0.90;0.80;;;11.20;99.90;;;;;;4995472;28;20203;-79
2023/12/30 14:17:20;;;;;;;0.90;0.80;;;11.10;99.90;;;;;;4995225;28;20211;-79
2023/12/30 14:19:47;;;;;;;0.82;0.80;;;11.10;99.90;;;;;;4995937;28;20207;-79
2023/12/30 14:22:15;;;;;;;0.80;0.70;;;11.10;99.90;;;;;;5000164;28;20286;-79
2023/12/30 14:24:44;;;;;;;0.80;0.70;;;11.10;99.90;;;;;;4994363;28;20208;-79
2023/12/30 14:27:12;;;;;;;1.25;1.15;;;11.10;99.90;;;;;;4996776;28;20207;-79
2023/12/30 14:29:39;;;;;;;1.05;0.88;;;11.00;99.90;;;;;;4995191;28;20219;-79
2023/12/30 14:32:06;;;;;;;0.93;0.82;;;11.00;99.90;;;;;;4998070;28;20264;-80
2023/12/30 14:34:33;;;;;;;1.10;0.95;;;11.00;99.90;;;;;;4995295;28;20212;-79
2023/12/30 14:37:00;;;;;;;1.10;0.80;;;11.00;99.90;;;;;;4996765;28;20211;-80
2023/12/30 14:39:28;;;;;;;1.42;1.02;;;10.90;99.90;;;;;;4990746;28;20204;-79
2023/12/30 14:41:57;;;;;;;1.38;1.00;;;10.80;99.90;;;;;;4996150;28;20297;-80
2023/12/30 14:44:24;;;;;;;1.23;1.13;;;10.70;99.90;;;;;;4997028;28;20219;-79
2023/12/30 14:46:52;;;;;;;1.00;0.90;;;10.70;99.90;;;;;;4998170;28;20602;-80
2023/12/30 14:49:19;;;;;;;1.75;0.93;;;10.70;99.90;;;;;;4998213;28;20255;-80
2023/12/30 14:51:46;;;;;;;1.20;1.10;;;10.70;99.90;;;;;;4995803;28;20293;-80
2023/12/30 14:54:13;;;;;;;1.02;0.93;;;10.70;99.90;;;;;;4996668;28;20269;-80
2023/12/30 14:56:41;;;;;;;2.38;1.17;;;10.70;99.90;;;;;;4999675;28;20266;-80
2023/12/30 14:59:10;;;;;;;1.33;1.00;;;10.70;99.90;;;;;;4997739;28;20672;-80
2023/12/30 15:01:36;;;;;;;3.35;1.70;;;10.70;99.90;;;;;;4996665;28;20231;-80
2023/12/30 15:04:04;;;;;;;1.65;1.13;;;10.60;99.90;;;;;;4998419;28;20214;-80
2023/12/30 15:06:31;;;;;;;1.02;0.93;;;10.60;99.90;;;;;;4997656;28;20274;-80
2023/12/30 15:08:58;;;;;;;1.08;0.90;;;10.60;99.90;;;;;;4991339;28;20208;-80
2023/12/30 15:11:27;;;;;;;1.13;1.02;;;10.50;99.90;;;;;;4997651;28;20623;-80
2023/12/30 15:13:54;;;;;;;1.13;1.02;;;10.50;99.90;;;;;;4998689;28;20203;-80
2023/12/30 15:16:22;;;;;;;1.67;1.58;;;10.50;99.90;;;;;;4997751;28;20602;-80
2023/12/30 15:18:49;;;;;;;1.10;0.90;;;10.40;99.90;;;;;;4995641;28;20214;-80
2023/12/30 15:21:17;;;;;;;1.00;0.80;;;10.40;99.90;;;;;;4997942;28;20655;-80
2023/12/30 15:23:50;;;;;;;2.17;1.30;;;10.40;99.90;;;;;;4997736;28;20592;-80
2023/12/30 15:26:20;;;;;;;1.88;1.30;;;10.30;99.90;;;;;;4998612;28;20211;-81
2023/12/30 15:28:52;;;;;;;1.30;1.17;;;10.30;99.90;;;;;;4997932;28;20211;-80
2023/12/30 15:31:37;;;;;;;4.43;1.33;;;10.30;99.90;;;;;;4998576;28;20231;-80
2023/12/30 15:34:09;;;;;;;1.13;1.00;;;10.20;99.90;;;;;;4991865;28;20606;-80
2023/12/30 15:36:49;;;;;;;1.10;1.00;;;10.20;99.90;;;;;;4996618;28;20647;-81
2023/12/30 15:39:24;;;;;;;1.40;0.90;;;10.00;99.90;;;;;;4998201;28;20219;-81
2023/12/30 15:44:38;;;;;;;1.30;1.20;;;9.90;99.90;;;;;;4997188;28;20595;-81
2023/12/30 15:47:20;;;;;;;2.47;1.20;;;9.80;99.90;;;;;;5003122;28;20210;-80
2023/12/30 15:49:53;;;;;;;2.30;1.65;;;9.70;99.90;;;;;;4997354;28;20211;-80
2023/12/30 15:52:32;;;;;;;1.83;1.40;;;9.70;99.90;;;;;;4995828;28;20229;-81
2023/12/30 15:55:03;;;;;;;2.75;1.38;;;9.60;99.90;;;;;;4990727;28;20215;-80
2023/12/30 15:57:30;;;;;;;1.60;1.20;;;9.60;99.90;;;;;;4997674;28;20238;-80
2023/12/30 15:59:59;;;;;;;1.48;1.38;;;9.60;99.90;;;;;;4990352;28;20301;-80
2023/12/30 16:02:28;;;;;;;1.80;1.25;;;9.60;99.90;;;;;;4996491;28;20230;-80
2023/12/30 16:04:55;;;;;;;2.60;1.75;;;9.60;99.90;;;;;;4994991;28;20226;-80
2023/12/30 16:07:22;;;;;;;2.17;1.40;;;9.50;99.90;;;;;;4994123;28;20218;-80
2023/12/30 16:09:52;;;;;;;2.40;2.03;;;9.50;99.90;;;;;;4995992;28;20265;-78
2023/12/30 16:12:19;;;;;;;1.42;1.33;;;9.40;99.90;;;;;;5000895;28;20318;-80
2023/12/30 16:14:47;;;;;;;2.17;1.50;;;9.30;99.90;;;;;;5004328;28;20258;-79
2023/12/30 16:17:13;;;;;;;1.83;1.55;;;9.30;99.90;;;;;;5008752;28;20278;-80
2023/12/30 16:19:42;;;;;;;1.30;1.20;;;9.30;99.90;;;;;;5008363;28;20222;-79
2023/12/30 16:22:09;;;;;;;2.42;1.70;;;9.20;99.90;;;;;;5003441;28;20695;-80
2023/12/30 16:24:36;;;;;;;1.40;1.20;;;9.10;99.90;;;;;;5002943;28;20218;-80
2023/12/30 16:27:03;;;;;;;2.78;1.40;;;9.10;99.90;;;;;;4995836;28;20221;-79
2023/12/30 16:29:30;;;;;;;1.85;1.65;;;9.10;99.90;;;;;;4993780;28;20238;-80
2023/12/30 16:32:00;;;;;;;2.60;1.95;;;9.00;99.90;;;;;;4980611;28;20259;-80
2023/12/30 16:34:27;;;;;;;2.05;1.85;;;9.00;99.90;;;;;;4974408;28;20274;-80
2023/12/30 16:36:56;;;;;;;2.95;1.58;;;9.00;99.90;;;;;;4973933;28;20596;-80
2023/12/30 16:39:23;;;;;;;3.25;1.95;;;8.90;99.90;;;;;;4975569;28;20233;-80
2023/12/30 16:41:50;;;;;;;1.58;1.48;;;8.90;99.90;;;;;;4976736;28;20239;-80
2023/12/30 16:44:17;;;;;;;2.53;2.15;;;8.90;99.90;;;;;;4975772;28;20483;-80
2023/12/30 16:46:44;;;;;;;1.80;1.70;;;8.80;99.90;;;;;;4975906;28;20773;-80
2023/12/30 16:49:11;;;;;;;2.45;2.20;;;8.80;99.90;;;;;;4975475;28;20215;-81
2023/12/30 16:51:37;;;;;;;3.25;2.75;;;8.70;99.90;;;;;;4975444;28;20227;-80
2023/12/30 16:54:08;;;;;;;5.13;4.05;;;8.70;99.90;;;;;;4976595;28;20217;-80
2023/12/30 16:56:35;;;;;;;3.22;2.83;;;8.70;99.90;;;;;;4974917;28;20306;-79
2023/12/30 16:59:02;;;;;;;3.20;2.72;;;8.70;99.90;;;;;;4974218;28;20241;-80
2023/12/30 17:01:30;;;;;;;2.67;1.67;;;8.70;99.90;;;;;;4975563;28;20310;-80
2023/12/30 17:04:15;;;;;;;2.35;1.98;;;8.70;99.90;;;;;;4975721;28;20226;-80
2023/12/30 17:06:46;;;;;;;2.50;1.80;;;8.70;99.90;;;;;;4975192;28;20211;-80
2023/12/30 17:09:15;;;;;;;1.88;1.40;;;8.70;99.90;;;;;;4976268;28;20469;-80
2023/12/30 17:11:42;;;;;;;3.63;1.95;;;8.60;99.90;;;;;;4985528;28;20566;-80
2023/12/30 17:14:10;;;;;;;1.52;1.35;;;8.60;99.90;;;;;;4974915;28;20239;-80
2023/12/30 17:16:37;;;;;;;2.58;1.70;;;8.60;99.90;;;;;;4973424;28;20702;-80
2023/12/30 17:19:04;;;;;;;1.60;1.20;;;8.60;99.90;;;;;;4975503;28;20642;-81
2023/12/30 17:21:32;;;;;;;1.75;1.65;;;8.60;99.90;;;;;;4972684;28;20306;-80